sensor_id;sensor_type;location;lat;lon;timestamp;pressure;altitude;pressure_sealevel;temperature;humidity
39435;BME280;66825;51.880;-0.518;2023-05-02T00:00:09;101344.28;;;18.25;42.85
39435;BME280;66825;51.880;-0.518;2023-05-02T00:02:35;101343.47;;;18.24;42.82
39435;BME280;66825;51.880;-0.518;2023-05-02T00:05:01;101348.94;;;18.24;42.76
39435;BME280;66825;51.880;-0.518;2023-05-02T00:07:26;101345.41;;;18.24;42.98
39435;BME280;66825;51.880;-0.518;2023-05-02T00:09:52;101312.22;;;18.06;42.75
39435;BME280;66825;51.880;-0.518;2023-05-02T00:12:17;101339.13;;;18.23;42.86
39435;BME280;66825;51.880;-0.518;2023-05-02T00:14:43;101331.22;;;18.22;42.91
39435;BME280;66825;51.880;-0.518;2023-05-02T00:17:15;101344.88;;;18.22;43.07
39435;BME280;66825;51.880;-0.518;2023-05-02T00:19:41;101341.59;;;18.20;42.88
39435;BME280;66825;51.880;-0.518;2023-05-02T00:22:07;101238.66;;;17.51;43.04
39435;BME280;66825;51.880;-0.518;2023-05-02T00:24:32;101329.69;;;18.05;42.95
39435;BME280;66825;51.880;-0.518;2023-05-02T00:26:58;101356.88;;;18.21;42.80
39435;BME280;66825;51.880;-0.518;2023-05-02T00:29:23;101364.25;;;18.20;42.92
39435;BME280;66825;51.880;-0.518;2023-05-02T00:31:48;101360.69;;;18.20;42.93
39435;BME280;66825;51.880;-0.518;2023-05-02T00:34:14;101357.97;;;18.20;43.14
39435;BME280;66825;51.880;-0.518;2023-05-02T00:36:39;101367.25;;;18.19;43.17
39435;BME280;66825;51.880;-0.518;2023-05-02T00:39:05;101367.25;;;18.19;43.00
39435;BME280;66825;51.880;-0.518;2023-05-02T00:41:30;101364.50;;;18.19;42.97
39435;BME280;66825;51.880;-0.518;2023-05-02T00:43:57;101361.78;;;18.19;42.79
39435;BME280;66825;51.880;-0.518;2023-05-02T00:46:22;101365.59;;;18.18;43.03
39435;BME280;66825;51.880;-0.518;2023-05-02T00:48:48;101358.81;;;18.15;43.04
39435;BME280;66825;51.880;-0.518;2023-05-02T00:51:13;101361.28;;;18.17;43.02
39435;BME280;66825;51.880;-0.518;2023-05-02T00:53:39;101372.19;;;18.17;42.83
39435;BME280;66825;51.880;-0.518;2023-05-02T00:56:06;101352.59;;;18.04;42.82
39435;BME280;66825;51.880;-0.518;2023-05-02T00:58:32;101367.81;;;18.16;43.08
39435;BME280;66825;51.880;-0.518;2023-05-02T01:03:59;101362.38;;;18.10;42.99
39435;BME280;66825;51.880;-0.518;2023-05-02T01:09:20;101382.00;;;18.13;42.94
39435;BME280;66825;51.880;-0.518;2023-05-02T01:11:49;101378.47;;;18.12;43.03
39435;BME280;66825;51.880;-0.518;2023-05-02T01:14:17;101378.22;;;18.08;42.80
39435;BME280;66825;51.880;-0.518;2023-05-02T01:16:45;101387.75;;;18.11;42.71
39435;BME280;66825;51.880;-0.518;2023-05-02T01:19:24;101390.22;;;18.07;43.06
39435;BME280;66825;51.880;-0.518;2023-05-02T01:21:51;101375.53;;;17.93;42.88
39435;BME280;66825;51.880;-0.518;2023-05-02T01:24:24;101395.69;;;18.07;42.90
39435;BME280;66825;51.880;-0.518;2023-05-02T01:27:00;101382.59;;;18.09;43.03
39435;BME280;66825;51.880;-0.518;2023-05-02T01:29:29;101371.97;;;18.03;43.06
39435;BME280;66825;51.880;-0.518;2023-05-02T01:31:56;101379.59;;;18.06;42.90
39435;BME280;66825;51.880;-0.518;2023-05-02T01:34:24;101384.47;;;18.09;43.17
39435;BME280;66825;51.880;-0.518;2023-05-02T01:36:53;101369.28;;;17.98;43.05
39435;BME280;66825;51.880;-0.518;2023-05-02T01:39:21;101389.13;;;18.08;42.99
39435;BME280;66825;51.880;-0.518;2023-05-02T01:41:49;101392.94;;;18.07;43.01
39435;BME280;66825;51.880;-0.518;2023-05-02T01:44:21;101397.56;;;18.07;42.90
39435;BME280;66825;51.880;-0.518;2023-05-02T01:46:47;101394.84;;;18.07;43.06
39435;BME280;66825;51.880;-0.518;2023-05-02T01:49:13;101401.13;;;18.07;42.95
39435;BME280;66825;51.880;-0.518;2023-05-02T01:51:43;101403.31;;;18.05;43.20
39435;BME280;66825;51.880;-0.518;2023-05-02T01:54:12;101385.06;;;18.01;42.91
39435;BME280;66825;51.880;-0.518;2023-05-02T01:56:38;101398.69;;;18.06;42.89
39435;BME280;66825;51.880;-0.518;2023-05-02T01:59:07;101407.13;;;18.04;42.89
39435;BME280;66825;51.880;-0.518;2023-05-02T02:01:35;101333.72;;;17.58;42.83
39435;BME280;66825;51.880;-0.518;2023-05-02T02:04:03;101410.69;;;18.05;43.27
39435;BME280;66825;51.880;-0.518;2023-05-02T02:06:30;101410.69;;;18.05;43.11
39435;BME280;66825;51.880;-0.518;2023-05-02T02:08:55;101416.16;;;18.05;43.10
39435;BME280;66825;51.880;-0.518;2023-05-02T02:11:26;101414.50;;;18.04;42.93
39435;BME280;66825;51.880;-0.518;2023-05-02T02:14:03;101421.34;;;18.01;43.14
39435;BME280;66825;51.880;-0.518;2023-05-02T02:16:33;101422.69;;;18.04;43.20
39435;BME280;66825;51.880;-0.518;2023-05-02T02:19:05;101430.03;;;18.03;43.15
39435;BME280;66825;51.880;-0.518;2023-05-02T02:21:33;101431.97;;;18.03;42.95
39435;BME280;66825;51.880;-0.518;2023-05-02T02:24:01;101439.34;;;18.02;43.09
39435;BME280;66825;51.880;-0.518;2023-05-02T02:26:28;101446.69;;;18.02;43.00
39435;BME280;66825;51.880;-0.518;2023-05-02T02:28:55;101454.06;;;18.01;43.20
39435;BME280;66825;51.880;-0.518;2023-05-02T02:31:20;101450.50;;;18.01;43.17
39435;BME280;66825;51.880;-0.518;2023-05-02T02:33:46;101456.78;;;18.01;42.92
39435;BME280;66825;51.880;-0.518;2023-05-02T02:36:27;101458.69;;;18.01;43.12
39435;BME280;66825;51.880;-0.518;2023-05-02T02:41:42;101467.16;;;17.99;43.06
39435;BME280;66825;51.880;-0.518;2023-05-02T02:44:21;101467.16;;;17.99;42.87
39435;BME280;66825;51.880;-0.518;2023-05-02T02:47:05;101430.66;;;17.74;42.87
39435;BME280;66825;51.880;-0.518;2023-05-02T02:49:59;101463.06;;;17.97;43.27
39435;BME280;66825;51.880;-0.518;2023-05-02T02:52:49;101470.16;;;17.98;43.07
39435;BME280;66825;51.880;-0.518;2023-05-02T02:55:27;101465.22;;;17.94;42.81
39435;BME280;66825;51.880;-0.518;2023-05-02T03:00:46;101469.63;;;17.96;42.80
39435;BME280;66825;51.880;-0.518;2023-05-02T03:03:14;101470.97;;;17.93;43.20
39435;BME280;66825;51.880;-0.518;2023-05-02T03:05:42;101474.25;;;17.95;42.82
39435;BME280;66825;51.880;-0.518;2023-05-02T03:08:08;101463.06;;;17.86;43.00
39435;BME280;66825;51.880;-0.518;2023-05-02T03:10:34;101474.25;;;17.95;43.18
39435;BME280;66825;51.880;-0.518;2023-05-02T03:13:00;101476.13;;;17.94;42.84
39435;BME280;66825;51.880;-0.518;2023-05-02T03:18:18;101408.66;;;17.50;42.80
39435;BME280;66825;51.880;-0.518;2023-05-02T03:20:44;101459.53;;;17.86;43.03
39435;BME280;66825;51.880;-0.518;2023-05-02T03:23:09;101469.03;;;17.93;42.88
39435;BME280;66825;51.880;-0.518;2023-05-02T03:25:35;101474.78;;;17.92;43.05
39435;BME280;66825;51.880;-0.518;2023-05-02T03:28:01;101472.84;;;17.92;42.91
39435;BME280;66825;51.880;-0.518;2023-05-02T03:30:27;101475.06;;;17.90;43.14
39435;BME280;66825;51.880;-0.518;2023-05-02T03:32:52;101473.97;;;17.91;43.08
39435;BME280;66825;51.880;-0.518;2023-05-02T03:35:17;101474.22;;;17.90;42.82
39435;BME280;66825;51.880;-0.518;2023-05-02T03:37:44;101447.00;;;17.74;43.17
39435;BME280;66825;51.880;-0.518;2023-05-02T03:40:09;101472.34;;;17.90;43.20
39435;BME280;66825;51.880;-0.518;2023-05-02T03:42:35;101445.41;;;17.68;43.11
39435;BME280;66825;51.880;-0.518;2023-05-02T03:45:08;101487.84;;;17.90;42.96
39435;BME280;66825;51.880;-0.518;2023-05-02T03:47:33;101481.59;;;17.89;43.06
39435;BME280;66825;51.880;-0.518;2023-05-02T03:49:59;101493.31;;;17.90;42.83
39435;BME280;66825;51.880;-0.518;2023-05-02T03:52:25;101493.03;;;17.86;43.19
39435;BME280;66825;51.880;-0.518;2023-05-02T03:54:51;101494.41;;;17.89;42.95
39435;BME280;66825;51.880;-0.518;2023-05-02T03:57:17;101443.78;;;17.52;42.97
39435;BME280;66825;51.880;-0.518;2023-05-02T03:59:42;101509.94;;;17.88;43.02
39435;BME280;66825;51.880;-0.518;2023-05-02T04:02:13;101517.31;;;17.88;43.03
39435;BME280;66825;51.880;-0.518;2023-05-02T04:04:39;101508.88;;;17.84;42.73
39435;BME280;66825;51.880;-0.518;2023-05-02T04:07:05;101512.97;;;17.87;43.22
39435;BME280;66825;51.880;-0.518;2023-05-02T04:09:32;101468.31;;;17.52;43.11
39435;BME280;66825;51.880;-0.518;2023-05-02T04:11:58;101526.84;;;17.85;43.04
39435;BME280;66825;51.880;-0.518;2023-05-02T04:14:23;101535.31;;;17.84;43.17
39435;BME280;66825;51.880;-0.518;2023-05-02T04:16:50;101530.41;;;17.86;42.90
39435;BME280;66825;51.880;-0.518;2023-05-02T04:19:16;101533.13;;;17.86;43.21
39435;BME280;66825;51.880;-0.518;2023-05-02T04:21:42;101532.03;;;17.82;42.85
39435;BME280;66825;51.880;-0.518;2023-05-02T04:24:08;101534.22;;;17.85;42.88
39435;BME280;66825;51.880;-0.518;2023-05-02T04:26:33;101464.53;;;17.42;42.92
39435;BME280;66825;51.880;-0.518;2023-05-02T04:28:59;101530.69;;;17.84;43.00
39435;BME280;66825;51.880;-0.518;2023-05-02T04:31:25;101529.84;;;17.84;43.33
39435;BME280;66825;51.880;-0.518;2023-05-02T04:33:51;101471.06;;;17.41;43.01
39435;BME280;66825;51.880;-0.518;2023-05-02T04:36:17;101533.97;;;17.81;43.03
39435;BME280;66825;51.880;-0.518;2023-05-02T04:38:43;101547.31;;;17.83;43.20
39435;BME280;66825;51.880;-0.518;2023-05-02T04:41:09;101541.59;;;17.84;43.25
39435;BME280;66825;51.880;-0.518;2023-05-02T04:43:35;101548.38;;;17.82;43.21
39435;BME280;66825;51.880;-0.518;2023-05-02T04:46:00;101549.22;;;17.82;42.98
39435;BME280;66825;51.880;-0.518;2023-05-02T04:48:27;101545.16;;;17.80;43.06
39435;BME280;66825;51.880;-0.518;2023-05-02T04:50:52;101541.88;;;17.77;42.86
39435;BME280;66825;51.880;-0.518;2023-05-02T04:53:20;101550.31;;;17.81;43.25
39435;BME280;66825;51.880;-0.518;2023-05-02T04:55:46;101552.50;;;17.79;43.04
39435;BME280;66825;51.880;-0.518;2023-05-02T04:58:11;101489.59;;;17.39;42.70
39435;BME280;66825;51.880;-0.518;2023-05-02T05:00:37;101562.31;;;17.80;42.99
39435;BME280;66825;51.880;-0.518;2023-05-02T05:03:02;101552.22;;;17.75;42.93
39435;BME280;66825;51.880;-0.518;2023-05-02T05:05:28;101564.22;;;17.80;42.84
39435;BME280;66825;51.880;-0.518;2023-05-02T05:07:53;101558.50;;;17.76;42.76
39435;BME280;66825;51.880;-0.518;2023-05-02T05:10:19;101559.03;;;17.78;42.91
39435;BME280;66825;51.880;-0.518;2023-05-02T05:12:44;101565.31;;;17.78;43.20
39435;BME280;66825;51.880;-0.518;2023-05-02T05:15:10;101565.31;;;17.78;43.35
39435;BME280;66825;51.880;-0.518;2023-05-02T05:17:36;101575.66;;;17.76;43.31
39435;BME280;66825;51.880;-0.518;2023-05-02T05:20:02;101569.94;;;17.78;43.17
39435;BME280;66825;51.880;-0.518;2023-05-02T05:22:27;101568.28;;;17.77;43.13
39435;BME280;66825;51.880;-0.518;2023-05-02T05:24:53;101572.13;;;17.76;43.00
39435;BME280;66825;51.880;-0.518;2023-05-02T05:27:19;101561.50;;;17.69;43.10
39435;BME280;66825;51.880;-0.518;2023-05-02T05:29:45;101556.59;;;17.61;43.37
39435;BME280;66825;51.880;-0.518;2023-05-02T05:32:10;101589.28;;;17.76;42.82
39435;BME280;66825;51.880;-0.518;2023-05-02T05:34:35;101560.41;;;17.65;43.05
39435;BME280;66825;51.880;-0.518;2023-05-02T05:37:01;101584.94;;;17.75;42.80
39435;BME280;66825;51.880;-0.518;2023-05-02T05:39:27;101579.75;;;17.74;43.16
39435;BME280;66825;51.880;-0.518;2023-05-02T05:41:53;101592.31;;;17.75;43.34
39435;BME280;66825;51.880;-0.518;2023-05-02T05:44:19;101598.56;;;17.75;43.23
39435;BME280;66825;51.880;-0.518;2023-05-02T05:46:46;101595.28;;;17.73;43.16
39435;BME280;66825;51.880;-0.518;2023-05-02T05:49:14;101599.63;;;17.74;43.23
39435;BME280;66825;51.880;-0.518;2023-05-02T05:51:40;101536.44;;;17.31;43.23
39435;BME280;66825;51.880;-0.518;2023-05-02T05:54:05;101607.81;;;17.74;42.88
39435;BME280;66825;51.880;-0.518;2023-05-02T05:56:31;101601.81;;;17.67;43.17
39435;BME280;66825;51.880;-0.518;2023-05-02T05:58:57;101602.91;;;17.66;43.11
39435;BME280;66825;51.880;-0.518;2023-05-02T06:01:22;101613.56;;;17.73;43.15
39435;BME280;66825;51.880;-0.518;2023-05-02T06:03:48;101615.47;;;17.72;42.93
39435;BME280;66825;51.880;-0.518;2023-05-02T06:06:13;101608.91;;;17.68;43.09
39435;BME280;66825;51.880;-0.518;2023-05-02T06:08:39;101617.38;;;17.72;42.80
39435;BME280;66825;51.880;-0.518;2023-05-02T06:11:10;101604.56;;;17.57;43.05
39435;BME280;66825;51.880;-0.518;2023-05-02T06:13:36;101620.09;;;17.72;43.13
39435;BME280;66825;51.880;-0.518;2023-05-02T06:16:02;101619.00;;;17.68;42.94
39435;BME280;66825;51.880;-0.518;2023-05-02T06:18:27;101625.81;;;17.70;43.48
39435;BME280;66825;51.880;-0.518;2023-05-02T06:20:53;101623.09;;;17.70;43.12
39435;BME280;66825;51.880;-0.518;2023-05-02T06:23:18;101635.88;;;17.70;43.12
39435;BME280;66825;51.880;-0.518;2023-05-02T06:25:44;101629.63;;;17.69;43.36
39435;BME280;66825;51.880;-0.518;2023-05-02T06:28:09;101614.63;;;17.56;43.46
39435;BME280;66825;51.880;-0.518;2023-05-02T06:30:35;101633.44;;;17.68;43.24
39435;BME280;66825;51.880;-0.518;2023-05-02T06:33:03;101599.66;;;17.49;43.10
39435;BME280;66825;51.880;-0.518;2023-05-02T06:35:29;101628.81;;;17.69;43.42
39435;BME280;66825;51.880;-0.518;2023-05-02T06:37:54;101615.47;;;17.57;43.02
39435;BME280;66825;51.880;-0.518;2023-05-02T06:40:20;101639.97;;;17.67;42.96
39435;BME280;66825;51.880;-0.518;2023-05-02T06:42:45;101642.69;;;17.67;43.17
39435;BME280;66825;51.880;-0.518;2023-05-02T06:45:11;101648.16;;;17.67;42.93
39435;BME280;66825;51.880;-0.518;2023-05-02T06:47:36;101636.69;;;17.60;43.50
39435;BME280;66825;51.880;-0.518;2023-05-02T06:50:02;101650.88;;;17.67;43.34
39435;BME280;66825;51.880;-0.518;2023-05-02T06:52:28;101629.91;;;17.57;43.23
39435;BME280;66825;51.880;-0.518;2023-05-02T06:54:53;101654.44;;;17.68;43.21
39435;BME280;66825;51.880;-0.518;2023-05-02T06:57:18;101652.81;;;17.67;42.81
39435;BME280;66825;51.880;-0.518;2023-05-02T06:59:44;101658.81;;;17.69;43.00
39435;BME280;66825;51.880;-0.518;2023-05-02T07:02:09;101658.81;;;17.69;43.01
39435;BME280;66825;51.880;-0.518;2023-05-02T07:04:35;101591.72;;;17.26;43.15
39435;BME280;66825;51.880;-0.518;2023-05-02T07:07:01;101651.44;;;17.69;43.14
39435;BME280;66825;51.880;-0.518;2023-05-02T07:09:27;101654.16;;;17.69;42.93
39435;BME280;66825;51.880;-0.518;2023-05-02T07:11:53;101655.81;;;17.70;43.46
39435;BME280;66825;51.880;-0.518;2023-05-02T07:14:18;101645.97;;;17.69;43.37
39435;BME280;66825;51.880;-0.518;2023-05-02T07:16:44;101640.25;;;17.66;43.44
39435;BME280;66825;51.880;-0.518;2023-05-02T07:19:09;101642.69;;;17.67;42.86
39435;BME280;66825;51.880;-0.518;2023-05-02T07:21:34;101656.34;;;17.72;43.21
39435;BME280;66825;51.880;-0.518;2023-05-02T07:24:00;101656.63;;;17.76;43.03
39435;BME280;66825;51.880;-0.518;2023-05-02T07:26:26;101664.81;;;17.76;43.04
39435;BME280;66825;51.880;-0.518;2023-05-02T07:28:52;101601.00;;;17.36;43.13
39435;BME280;66825;51.880;-0.518;2023-05-02T07:31:18;101653.63;;;17.72;43.20
39435;BME280;66825;51.880;-0.518;2023-05-02T07:33:43;101660.16;;;17.76;42.94
39435;BME280;66825;51.880;-0.518;2023-05-02T07:36:08;101658.00;;;17.78;43.08
39435;BME280;66825;51.880;-0.518;2023-05-02T07:38:34;101665.59;;;17.82;43.22
39435;BME280;66825;51.880;-0.518;2023-05-02T07:41:00;101662.63;;;17.83;43.46
39435;BME280;66825;51.880;-0.518;2023-05-02T07:43:25;101644.63;;;17.72;43.16
39435;BME280;66825;51.880;-0.518;2023-05-02T07:45:52;101677.06;;;17.89;43.13
39435;BME280;66825;51.880;-0.518;2023-05-02T07:48:17;101671.06;;;17.92;43.01
39435;BME280;66825;51.880;-0.518;2023-05-02T07:50:43;101672.44;;;17.94;43.27
39435;BME280;66825;51.880;-0.518;2023-05-02T07:53:08;101601.28;;;17.55;43.03
39435;BME280;66825;51.880;-0.518;2023-05-02T07:55:35;101597.47;;;17.51;43.30
39435;BME280;66825;51.880;-0.518;2023-05-02T07:58:00;101674.94;;;18.01;42.86
39435;BME280;66825;51.880;-0.518;2023-05-02T08:00:26;101682.28;;;18.06;43.14
39435;BME280;66825;51.880;-0.518;2023-05-02T08:02:51;101684.75;;;18.07;42.79
39435;BME280;66825;51.880;-0.518;2023-05-02T08:05:17;101668.38;;;18.02;42.94
39435;BME280;66825;51.880;-0.518;2023-05-02T08:07:42;101685.56;;;18.13;43.12
39435;BME280;66825;51.880;-0.518;2023-05-02T08:10:08;101686.09;;;18.15;42.80
39435;BME280;66825;51.880;-0.518;2023-05-02T08:12:42;101689.06;;;18.19;43.08
39435;BME280;66825;51.880;-0.518;2023-05-02T08:15:10;101687.72;;;18.21;42.74
39435;BME280;66825;51.880;-0.518;2023-05-02T08:17:36;101671.34;;;18.16;43.03
39435;BME280;66825;51.880;-0.518;2023-05-02T08:20:01;101688.25;;;18.29;43.85
39435;BME280;66825;51.880;-0.518;2023-05-02T08:22:27;101669.16;;;18.23;43.75
39435;BME280;66825;51.880;-0.518;2023-05-02T08:24:52;101697.25;;;18.34;43.51
39435;BME280;66825;51.880;-0.518;2023-05-02T08:27:18;101706.25;;;18.40;43.57
39435;BME280;66825;51.880;-0.518;2023-05-02T08:29:43;101698.63;;;18.42;43.62
39435;BME280;66825;51.880;-0.518;2023-05-02T08:32:09;101701.31;;;18.52;43.58
39435;BME280;66825;51.880;-0.518;2023-05-02T08:34:34;101706.78;;;18.57;43.21
39435;BME280;66825;51.880;-0.518;2023-05-02T08:37:00;101709.50;;;18.57;43.14
39435;BME280;66825;51.880;-0.518;2023-05-02T08:39:26;101709.78;;;18.61;43.40
39435;BME280;66825;51.880;-0.518;2023-05-02T08:41:51;101698.84;;;18.56;44.05
39435;BME280;66825;51.880;-0.518;2023-05-02T08:44:17;101718.19;;;18.75;44.07
39435;BME280;66825;51.880;-0.518;2023-05-02T08:46:43;101710.00;;;18.75;44.15
39435;BME280;66825;51.880;-0.518;2023-05-02T08:49:10;101731.81;;;18.85;43.46
39435;BME280;66825;51.880;-0.518;2023-05-02T08:51:36;101719.28;;;18.79;43.35
39435;BME280;66825;51.880;-0.518;2023-05-02T08:54:02;101736.44;;;18.90;43.53
39435;BME280;66825;51.880;-0.518;2023-05-02T08:56:28;101678.66;;;18.57;43.27
39435;BME280;66825;51.880;-0.518;2023-05-02T08:58:54;101730.16;;;19.00;43.33
39435;BME280;66825;51.880;-0.518;2023-05-02T09:01:22;101733.16;;;19.03;43.39
39435;BME280;66825;51.880;-0.518;2023-05-02T09:03:48;101732.56;;;19.07;43.01
39435;BME280;66825;51.880;-0.518;2023-05-02T09:06:19;101734.75;;;19.10;42.75
39435;BME280;66825;51.880;-0.518;2023-05-02T09:08:46;101729.84;;;19.12;43.02
39435;BME280;66825;51.880;-0.518;2023-05-02T09:11:16;101739.09;;;19.16;43.02
39435;BME280;66825;51.880;-0.518;2023-05-02T09:13:43;101737.47;;;19.20;42.86
39435;BME280;66825;51.880;-0.518;2023-05-02T09:16:17;101743.44;;;19.22;42.83
39435;BME280;66825;51.880;-0.518;2023-05-02T09:18:44;101688.66;;;18.87;42.54
39435;BME280;66825;51.880;-0.518;2023-05-02T09:21:12;101731.72;;;19.22;42.68
39435;BME280;66825;51.880;-0.518;2023-05-02T09:23:42;101688.91;;;18.91;42.23
39435;BME280;66825;51.880;-0.518;2023-05-02T09:26:29;101743.16;;;19.29;42.48
39435;BME280;66825;51.880;-0.518;2023-05-02T09:29:00;101744.50;;;19.31;42.44
39435;BME280;66825;51.880;-0.518;2023-05-02T09:31:27;101750.50;;;19.33;42.44
39435;BME280;66825;51.880;-0.518;2023-05-02T09:34:15;101749.94;;;19.36;43.19
39435;BME280;66825;51.880;-0.518;2023-05-02T09:36:43;101748.03;;;19.37;42.54
39435;BME280;66825;51.880;-0.518;2023-05-02T09:39:11;101749.69;;;19.38;42.39
39435;BME280;66825;51.880;-0.518;2023-05-02T09:41:41;101749.09;;;19.41;42.28
39435;BME280;66825;51.880;-0.518;2023-05-02T09:44:10;101746.06;;;19.43;42.26
39435;BME280;66825;51.880;-0.518;2023-05-02T09:46:45;101742.25;;;19.44;42.30
39435;BME280;66825;51.880;-0.518;2023-05-02T09:49:10;101752.63;;;19.47;42.40
39435;BME280;66825;51.880;-0.518;2023-05-02T09:51:36;101736.28;;;19.42;42.37
39435;BME280;66825;51.880;-0.518;2023-05-02T09:54:03;101745.50;;;19.51;42.36
39435;BME280;66825;51.880;-0.518;2023-05-02T09:56:28;101746.03;;;19.53;42.22
39435;BME280;66825;51.880;-0.518;2023-05-02T09:59:13;101745.75;;;19.55;41.97
39435;BME280;66825;51.880;-0.518;2023-05-02T10:01:40;101752.03;;;19.55;42.07
39435;BME280;66825;51.880;-0.518;2023-05-02T10:04:11;101756.13;;;19.58;42.08
39435;BME280;66825;51.880;-0.518;2023-05-02T10:06:44;101736.78;;;19.49;42.46
39435;BME280;66825;51.880;-0.518;2023-05-02T10:09:10;101754.75;;;19.60;43.81
39435;BME280;66825;51.880;-0.518;2023-05-02T10:11:41;101760.41;;;19.69;44.16
39435;BME280;66825;51.880;-0.518;2023-05-02T10:14:09;101763.94;;;19.75;43.70
39435;BME280;66825;51.880;-0.518;2023-05-02T10:16:37;101761.75;;;19.77;43.11
39435;BME280;66825;51.880;-0.518;2023-05-02T10:19:08;101769.41;;;19.75;42.26
39435;BME280;66825;51.880;-0.518;2023-05-02T10:21:35;101767.50;;;19.75;42.19
39435;BME280;66825;51.880;-0.518;2023-05-02T10:24:02;101771.91;;;19.71;41.59
39435;BME280;66825;51.880;-0.518;2023-05-02T10:26:28;101741.66;;;19.52;41.52
39435;BME280;66825;51.880;-0.518;2023-05-02T10:28:55;101767.84;;;19.63;41.29
39435;BME280;66825;51.880;-0.518;2023-05-02T10:31:21;101772.25;;;19.59;41.69
39435;BME280;66825;51.880;-0.518;2023-05-02T10:33:50;101761.88;;;19.56;41.87
39435;BME280;66825;51.880;-0.518;2023-05-02T10:36:21;101772.78;;;19.61;41.78
39435;BME280;66825;51.880;-0.518;2023-05-02T10:38:47;101769.22;;;19.66;41.78
39435;BME280;66825;51.880;-0.518;2023-05-02T10:41:15;101749.56;;;19.59;41.93
39435;BME280;66825;51.880;-0.518;2023-05-02T10:43:46;101775.69;;;19.75;41.77
39435;BME280;66825;51.880;-0.518;2023-05-02T10:46:29;101777.06;;;19.78;41.75
39435;BME280;66825;51.880;-0.518;2023-05-02T10:49:09;101782.50;;;19.83;41.80
39435;BME280;66825;51.880;-0.518;2023-05-02T10:51:36;101787.97;;;19.88;41.52
39435;BME280;66825;51.880;-0.518;2023-05-02T10:54:24;101786.56;;;19.91;41.05
39435;BME280;66825;51.880;-0.518;2023-05-02T10:59:31;101791.78;;;19.92;41.23
39435;BME280;66825;51.880;-0.518;2023-05-02T11:01:57;101778.09;;;19.92;41.22
39435;BME280;66825;51.880;-0.518;2023-05-02T11:04:23;101768.31;;;19.86;41.38
39435;BME280;66825;51.880;-0.518;2023-05-02T11:11:47;101786.81;;;19.99;41.24
39435;BME280;66825;51.880;-0.518;2023-05-02T11:19:26;101779.75;;;19.93;41.38
39435;BME280;66825;51.880;-0.518;2023-05-02T11:21:52;101787.31;;;20.02;41.82
39435;BME280;66825;51.880;-0.518;2023-05-02T11:24:39;101793.31;;;20.04;41.55
39435;BME280;66825;51.880;-0.518;2023-05-02T11:30:00;101784.28;;;20.08;41.58
39435;BME280;66825;51.880;-0.518;2023-05-02T11:37:41;101798.41;;;20.21;41.64
39435;BME280;66825;51.880;-0.518;2023-05-02T11:40:12;101734.38;;;19.82;41.08
39435;BME280;66825;51.880;-0.518;2023-05-02T11:42:38;101800.81;;;20.27;41.49
39435;BME280;66825;51.880;-0.518;2023-05-02T11:45:04;101796.69;;;20.30;41.26
39435;BME280;66825;51.880;-0.518;2023-05-02T11:47:31;101799.66;;;20.34;41.23
39435;BME280;66825;51.880;-0.518;2023-05-02T11:49:57;101783.06;;;20.25;41.07
39435;BME280;66825;51.880;-0.518;2023-05-02T11:52:24;101792.91;;;20.26;41.24
39435;BME280;66825;51.880;-0.518;2023-05-02T11:54:53;101813.31;;;20.39;41.25
39435;BME280;66825;51.880;-0.518;2023-05-02T11:57:22;101819.63;;;20.39;40.90
39435;BME280;66825;51.880;-0.518;2023-05-02T11:59:52;101825.59;;;20.41;41.14
39435;BME280;66825;51.880;-0.518;2023-05-02T12:02:18;101815.19;;;20.43;40.71
39435;BME280;66825;51.880;-0.518;2023-05-02T12:04:44;101821.50;;;20.44;40.40
39435;BME280;66825;51.880;-0.518;2023-05-02T12:07:09;101813.28;;;20.44;40.69
39435;BME280;66825;51.880;-0.518;2023-05-02T12:09:35;101824.22;;;20.44;40.47
39435;BME280;66825;51.880;-0.518;2023-05-02T12:12:01;101829.72;;;20.44;40.45
39435;BME280;66825;51.880;-0.518;2023-05-02T12:14:28;101825.03;;;20.44;40.49
39435;BME280;66825;51.880;-0.518;2023-05-02T12:16:55;101751.50;;;19.98;40.64
39435;BME280;66825;51.880;-0.518;2023-05-02T12:19:20;101788.03;;;20.18;40.83
39435;BME280;66825;51.880;-0.518;2023-05-02T12:21:46;101815.78;;;20.35;40.71
39435;BME280;66825;51.880;-0.518;2023-05-02T12:24:13;101838.72;;;20.44;40.81
39435;BME280;66825;51.880;-0.518;2023-05-02T12:26:39;101833.25;;;20.44;40.56
39435;BME280;66825;51.880;-0.518;2023-05-02T12:29:05;101825.84;;;20.45;40.69
39435;BME280;66825;51.880;-0.518;2023-05-02T12:31:32;101836.00;;;20.44;40.94
39435;BME280;66825;51.880;-0.518;2023-05-02T12:33:58;101831.31;;;20.45;41.27
39435;BME280;66825;51.880;-0.518;2023-05-02T12:36:24;101834.59;;;20.47;40.94
39435;BME280;66825;51.880;-0.518;2023-05-02T12:38:54;101816.91;;;20.34;40.58
39435;BME280;66825;51.880;-0.518;2023-05-02T12:41:35;101830.47;;;20.50;40.28
39435;BME280;66825;51.880;-0.518;2023-05-02T12:44:02;101828.03;;;20.48;40.50
39435;BME280;66825;51.880;-0.518;2023-05-02T12:46:28;101828.56;;;20.50;40.72
39435;BME280;66825;51.880;-0.518;2023-05-02T12:49:04;101818.16;;;20.47;40.59
39435;BME280;66825;51.880;-0.518;2023-05-02T12:51:30;101817.59;;;20.50;40.73
39435;BME280;66825;51.880;-0.518;2023-05-02T12:53:57;101811.03;;;20.51;40.83
39435;BME280;66825;51.880;-0.518;2023-05-02T12:56:22;101808.28;;;20.51;40.78
39435;BME280;66825;51.880;-0.518;2023-05-02T12:58:49;101816.22;;;20.53;40.91
39435;BME280;66825;51.880;-0.518;2023-05-02T13:01:15;101819.75;;;20.53;41.06
39435;BME280;66825;51.880;-0.518;2023-05-02T13:03:42;101822.72;;;20.57;40.83
39435;BME280;66825;51.880;-0.518;2023-05-02T13:06:08;101802.03;;;20.45;40.86
39435;BME280;66825;51.880;-0.518;2023-05-02T13:08:34;101817.50;;;20.60;41.07
39435;BME280;66825;51.880;-0.518;2023-05-02T13:11:01;101818.28;;;20.66;40.95
39435;BME280;66825;51.880;-0.518;2023-05-02T13:13:27;101821.25;;;20.70;40.91
39435;BME280;66825;51.880;-0.518;2023-05-02T13:15:54;101825.09;;;20.74;40.80